LFBO/TLS METAR and TAF weather

Enter ICAO airport designator
Station Type Date Time Source
LFBO METAR 2019/06/18 12:30 UTC NOAA

LFBO 181230Z AUTO 14013KT CAVOK 31/13 Q1010 NOSIG


Station Type Date Time Source
LFBO Decoded METAR 2019/06/18 12:30 UTC NOAA

Toulouse / Blagnac, France (LFBO) 43-38N 001-22E 153M
Jun 18, 2019 - 08:30 AM EDT / 2019.06.18 1230 UTC
Wind: from the SE (140 degrees) at 15 MPH (13 KT):0
Visibility: greater than 7 mile(s):0
Temperature: 87 F (31 C)
Dew Point: 55 F (13 C)
Relative Humidity: 33%
Pressure (altimeter): 29.83 in. Hg (1010 hPa)
ob: LFBO 181230Z AUTO 14013KT CAVOK 31/13 Q1010 NOSIG
cycle: 12

Station Type Date Time Source
LFBO TAF 2019/06/18 12:21 UTC NOAA

TAF LFBO 181100Z 1812/1918 14014KT CAVOK
BECMG 1823/1901 26010KT
TEMPO 1901/1907 BKN010
BECMG 1907/1909 VRB02KT
BECMG 1916/1918 SCT090TCU

Example: see airport list